sensor_id;sensor_type;location;lat;lon;timestamp;P1;durP1;ratioP1;P2;durP2;ratioP2
22388;SDS011;11362;48.102;11.620;2022-10-31T00:00:56;3.93;;;3.43;;
22388;SDS011;11362;48.102;11.620;2022-10-31T00:03:22;5.60;;;3.10;;
22388;SDS011;11362;48.102;11.620;2022-10-31T00:05:48;6.77;;;3.57;;
22388;SDS011;11362;48.102;11.620;2022-10-31T00:08:14;6.97;;;3.17;;
22388;SDS011;11362;48.102;11.620;2022-10-31T00:10:40;5.70;;;3.53;;
22388;SDS011;11362;48.102;11.620;2022-10-31T00:13:07;4.80;;;3.60;;
22388;SDS011;11362;48.102;11.620;2022-10-31T00:15:33;6.43;;;3.67;;
22388;SDS011;11362;48.102;11.620;2022-10-31T00:17:59;4.77;;;3.27;;
22388;SDS011;11362;48.102;11.620;2022-10-31T00:20:24;5.40;;;3.10;;
22388;SDS011;11362;48.102;11.620;2022-10-31T00:22:50;4.03;;;3.03;;
22388;SDS011;11362;48.102;11.620;2022-10-31T00:25:15;5.23;;;3.13;;
22388;SDS011;11362;48.102;11.620;2022-10-31T00:27:40;4.00;;;3.00;;
22388;SDS011;11362;48.102;11.620;2022-10-31T00:30:06;6.03;;;3.50;;
22388;SDS011;11362;48.102;11.620;2022-10-31T00:32:31;6.37;;;2.97;;
22388;SDS011;11362;48.102;11.620;2022-10-31T00:34:57;4.30;;;2.80;;
22388;SDS011;11362;48.102;11.620;2022-10-31T00:37:22;5.80;;;3.13;;
22388;SDS011;11362;48.102;11.620;2022-10-31T00:39:47;3.40;;;3.10;;
22388;SDS011;11362;48.102;11.620;2022-10-31T00:42:12;3.40;;;3.10;;
22388;SDS011;11362;48.102;11.620;2022-10-31T00:44:38;3.63;;;3.10;;
22388;SDS011;11362;48.102;11.620;2022-10-31T00:47:03;5.00;;;2.97;;
22388;SDS011;11362;48.102;11.620;2022-10-31T00:49:28;5.77;;;3.53;;
22388;SDS011;11362;48.102;11.620;2022-10-31T00:51:54;4.03;;;2.97;;
22388;SDS011;11362;48.102;11.620;2022-10-31T00:54:19;5.60;;;3.30;;
22388;SDS011;11362;48.102;11.620;2022-10-31T00:56:44;4.93;;;2.87;;
22388;SDS011;11362;48.102;11.620;2022-10-31T00:59:09;7.20;;;3.30;;
22388;SDS011;11362;48.102;11.620;2022-10-31T01:01:35;3.90;;;3.30;;
22388;SDS011;11362;48.102;11.620;2022-10-31T01:04:00;6.17;;;2.93;;
22388;SDS011;11362;48.102;11.620;2022-10-31T01:06:25;4.13;;;2.60;;
22388;SDS011;11362;48.102;11.620;2022-10-31T01:08:50;4.53;;;3.10;;
22388;SDS011;11362;48.102;11.620;2022-10-31T01:11:17;4.10;;;3.20;;
22388;SDS011;11362;48.102;11.620;2022-10-31T01:13:45;3.67;;;2.37;;
22388;SDS011;11362;48.102;11.620;2022-10-31T01:16:12;2.87;;;2.67;;
22388;SDS011;11362;48.102;11.620;2022-10-31T01:18:40;4.83;;;3.47;;
22388;SDS011;11362;48.102;11.620;2022-10-31T01:21:07;4.40;;;2.90;;
22388;SDS011;11362;48.102;11.620;2022-10-31T01:23:34;3.73;;;2.47;;
22388;SDS011;11362;48.102;11.620;2022-10-31T01:26:05;4.70;;;2.57;;
22388;SDS011;11362;48.102;11.620;2022-10-31T01:28:34;5.40;;;2.50;;
22388;SDS011;11362;48.102;11.620;2022-10-31T01:31:01;5.07;;;2.53;;
22388;SDS011;11362;48.102;11.620;2022-10-31T01:33:28;3.07;;;2.77;;
22388;SDS011;11362;48.102;11.620;2022-10-31T01:35:53;4.87;;;2.63;;
22388;SDS011;11362;48.102;11.620;2022-10-31T01:38:19;2.97;;;2.50;;
22388;SDS011;11362;48.102;11.620;2022-10-31T01:40:44;3.77;;;2.43;;
22388;SDS011;11362;48.102;11.620;2022-10-31T01:43:11;2.87;;;2.40;;
22388;SDS011;11362;48.102;11.620;2022-10-31T01:45:38;3.03;;;2.60;;
22388;SDS011;11362;48.102;11.620;2022-10-31T01:48:03;5.33;;;2.60;;
22388;SDS011;11362;48.102;11.620;2022-10-31T01:50:31;2.73;;;2.50;;
22388;SDS011;11362;48.102;11.620;2022-10-31T01:53:02;3.33;;;2.23;;
22388;SDS011;11362;48.102;11.620;2022-10-31T01:55:33;2.77;;;2.30;;
22388;SDS011;11362;48.102;11.620;2022-10-31T01:58:11;3.07;;;2.33;;
22388;SDS011;11362;48.102;11.620;2022-10-31T02:00:38;4.50;;;3.33;;
22388;SDS011;11362;48.102;11.620;2022-10-31T02:03:06;2.97;;;2.20;;
22388;SDS011;11362;48.102;11.620;2022-10-31T02:05:31;3.10;;;2.43;;
22388;SDS011;11362;48.102;11.620;2022-10-31T02:10:56;2.23;;;2.03;;
22388;SDS011;11362;48.102;11.620;2022-10-31T02:13:23;3.00;;;2.33;;
22388;SDS011;11362;48.102;11.620;2022-10-31T02:15:49;3.17;;;2.40;;
22388;SDS011;11362;48.102;11.620;2022-10-31T02:18:18;3.37;;;2.27;;
22388;SDS011;11362;48.102;11.620;2022-10-31T02:21:27;3.17;;;2.33;;
22388;SDS011;11362;48.102;11.620;2022-10-31T02:24:05;3.57;;;2.23;;
22388;SDS011;11362;48.102;11.620;2022-10-31T02:31:54;3.10;;;2.80;;
22388;SDS011;11362;48.102;11.620;2022-10-31T02:40:15;3.10;;;2.20;;
22388;SDS011;11362;48.102;11.620;2022-10-31T02:43:05;3.70;;;2.03;;
22388;SDS011;11362;48.102;11.620;2022-10-31T02:45:43;2.10;;;2.00;;
22388;SDS011;11362;48.102;11.620;2022-10-31T02:48:19;2.30;;;2.10;;
22388;SDS011;11362;48.102;11.620;2022-10-31T02:50:52;3.43;;;2.10;;
22388;SDS011;11362;48.102;11.620;2022-10-31T02:53:22;2.70;;;2.30;;
22388;SDS011;11362;48.102;11.620;2022-10-31T02:55:54;4.33;;;2.37;;
22388;SDS011;11362;48.102;11.620;2022-10-31T02:58:24;2.90;;;2.70;;
22388;SDS011;11362;48.102;11.620;2022-10-31T03:06:14;4.67;;;2.10;;
22388;SDS011;11362;48.102;11.620;2022-10-31T03:09:01;2.80;;;2.60;;
22388;SDS011;11362;48.102;11.620;2022-10-31T03:11:35;4.80;;;1.97;;
22388;SDS011;11362;48.102;11.620;2022-10-31T03:14:12;3.80;;;2.53;;
22388;SDS011;11362;48.102;11.620;2022-10-31T03:16:51;2.10;;;1.90;;
22388;SDS011;11362;48.102;11.620;2022-10-31T03:22:10;2.27;;;2.07;;
22388;SDS011;11362;48.102;11.620;2022-10-31T03:24:47;3.07;;;2.30;;
22388;SDS011;11362;48.102;11.620;2022-10-31T03:27:14;3.77;;;2.10;;
22388;SDS011;11362;48.102;11.620;2022-10-31T03:29:42;3.33;;;2.17;;
22388;SDS011;11362;48.102;11.620;2022-10-31T03:32:12;2.20;;;2.00;;
22388;SDS011;11362;48.102;11.620;2022-10-31T03:34:41;2.33;;;2.13;;
22388;SDS011;11362;48.102;11.620;2022-10-31T03:37:09;3.47;;;2.20;;
22388;SDS011;11362;48.102;11.620;2022-10-31T03:39:39;4.27;;;2.03;;
22388;SDS011;11362;48.102;11.620;2022-10-31T03:42:07;2.70;;;2.00;;
22388;SDS011;11362;48.102;11.620;2022-10-31T03:44:36;2.67;;;2.17;;
22388;SDS011;11362;48.102;11.620;2022-10-31T03:47:06;2.23;;;2.00;;
22388;SDS011;11362;48.102;11.620;2022-10-31T03:49:31;1.60;;;1.47;;
22388;SDS011;11362;48.102;11.620;2022-10-31T03:51:59;3.30;;;2.13;;
22388;SDS011;11362;48.102;11.620;2022-10-31T03:54:45;1.93;;;1.83;;
22388;SDS011;11362;48.102;11.620;2022-10-31T03:57:22;2.17;;;1.70;;
22388;SDS011;11362;48.102;11.620;2022-10-31T04:00:00;1.90;;;1.80;;
22388;SDS011;11362;48.102;11.620;2022-10-31T04:02:32;1.97;;;1.87;;
22388;SDS011;11362;48.102;11.620;2022-10-31T04:05:00;2.13;;;2.00;;
22388;SDS011;11362;48.102;11.620;2022-10-31T04:07:27;3.13;;;2.17;;
22388;SDS011;11362;48.102;11.620;2022-10-31T04:09:56;2.53;;;1.73;;
22388;SDS011;11362;48.102;11.620;2022-10-31T04:12:25;1.67;;;1.57;;
22388;SDS011;11362;48.102;11.620;2022-10-31T04:14:54;2.03;;;1.80;;
22388;SDS011;11362;48.102;11.620;2022-10-31T04:17:21;2.07;;;1.97;;
22388;SDS011;11362;48.102;11.620;2022-10-31T04:19:50;3.07;;;1.83;;
22388;SDS011;11362;48.102;11.620;2022-10-31T04:22:15;1.90;;;1.80;;
22388;SDS011;11362;48.102;11.620;2022-10-31T04:24:40;1.80;;;1.60;;
22388;SDS011;11362;48.102;11.620;2022-10-31T04:27:06;2.10;;;2.00;;
22388;SDS011;11362;48.102;11.620;2022-10-31T04:29:32;2.43;;;1.83;;
22388;SDS011;11362;48.102;11.620;2022-10-31T04:31:57;1.83;;;1.73;;
22388;SDS011;11362;48.102;11.620;2022-10-31T04:34:22;2.57;;;1.90;;
22388;SDS011;11362;48.102;11.620;2022-10-31T04:36:48;2.50;;;1.90;;
22388;SDS011;11362;48.102;11.620;2022-10-31T04:39:13;2.40;;;1.77;;
22388;SDS011;11362;48.102;11.620;2022-10-31T04:41:38;1.87;;;1.67;;
22388;SDS011;11362;48.102;11.620;2022-10-31T04:44:04;1.63;;;1.50;;
22388;SDS011;11362;48.102;11.620;2022-10-31T04:46:29;3.37;;;1.87;;
22388;SDS011;11362;48.102;11.620;2022-10-31T04:48:54;2.30;;;1.90;;
22388;SDS011;11362;48.102;11.620;2022-10-31T04:51:19;5.03;;;1.93;;
22388;SDS011;11362;48.102;11.620;2022-10-31T04:53:45;2.20;;;2.00;;
22388;SDS011;11362;48.102;11.620;2022-10-31T04:56:10;2.00;;;1.63;;
22388;SDS011;11362;48.102;11.620;2022-10-31T04:58:35;2.20;;;2.00;;
22388;SDS011;11362;48.102;11.620;2022-10-31T05:01:00;2.03;;;1.83;;
22388;SDS011;11362;48.102;11.620;2022-10-31T05:03:26;3.83;;;2.10;;
22388;SDS011;11362;48.102;11.620;2022-10-31T05:05:51;1.80;;;1.70;;
22388;SDS011;11362;48.102;11.620;2022-10-31T05:08:16;1.63;;;1.53;;
22388;SDS011;11362;48.102;11.620;2022-10-31T05:10:42;2.00;;;1.50;;
22388;SDS011;11362;48.102;11.620;2022-10-31T05:13:07;1.93;;;1.77;;
22388;SDS011;11362;48.102;11.620;2022-10-31T05:15:33;3.27;;;1.80;;
22388;SDS011;11362;48.102;11.620;2022-10-31T05:17:59;2.67;;;2.20;;
22388;SDS011;11362;48.102;11.620;2022-10-31T05:20:25;2.13;;;1.73;;
22388;SDS011;11362;48.102;11.620;2022-10-31T05:22:53;1.47;;;1.40;;
22388;SDS011;11362;48.102;11.620;2022-10-31T05:25:21;2.90;;;1.20;;
22388;SDS011;11362;48.102;11.620;2022-10-31T05:27:48;2.33;;;1.80;;
22388;SDS011;11362;48.102;11.620;2022-10-31T05:30:16;2.20;;;1.40;;
22388;SDS011;11362;48.102;11.620;2022-10-31T05:32:44;1.60;;;1.50;;
22388;SDS011;11362;48.102;11.620;2022-10-31T05:35:12;1.73;;;1.60;;
22388;SDS011;11362;48.102;11.620;2022-10-31T05:37:38;4.23;;;1.80;;
22388;SDS011;11362;48.102;11.620;2022-10-31T05:40:05;1.83;;;1.40;;
22388;SDS011;11362;48.102;11.620;2022-10-31T05:42:32;1.70;;;1.60;;
22388;SDS011;11362;48.102;11.620;2022-10-31T05:44:58;1.87;;;1.43;;
22388;SDS011;11362;48.102;11.620;2022-10-31T05:47:23;1.70;;;1.60;;
22388;SDS011;11362;48.102;11.620;2022-10-31T05:49:48;7.03;;;1.60;;
22388;SDS011;11362;48.102;11.620;2022-10-31T05:52:14;10.40;;;3.40;;
22388;SDS011;11362;48.102;11.620;2022-10-31T05:54:39;15.37;;;2.63;;
22388;SDS011;11362;48.102;11.620;2022-10-31T05:57:05;6.60;;;2.10;;
22388;SDS011;11362;48.102;11.620;2022-10-31T05:59:30;5.73;;;2.33;;
22388;SDS011;11362;48.102;11.620;2022-10-31T06:01:55;11.33;;;2.40;;
22388;SDS011;11362;48.102;11.620;2022-10-31T06:04:21;2.40;;;2.20;;
22388;SDS011;11362;48.102;11.620;2022-10-31T06:06:46;5.90;;;2.57;;
22388;SDS011;11362;48.102;11.620;2022-10-31T06:09:11;7.17;;;2.10;;
22388;SDS011;11362;48.102;11.620;2022-10-31T06:11:37;5.50;;;2.33;;
22388;SDS011;11362;48.102;11.620;2022-10-31T06:14:02;5.93;;;2.00;;
22388;SDS011;11362;48.102;11.620;2022-10-31T06:16:28;8.10;;;2.47;;
22388;SDS011;11362;48.102;11.620;2022-10-31T06:18:53;4.23;;;1.93;;
22388;SDS011;11362;48.102;11.620;2022-10-31T06:21:18;6.93;;;1.97;;
22388;SDS011;11362;48.102;11.620;2022-10-31T06:23:44;6.67;;;1.93;;
22388;SDS011;11362;48.102;11.620;2022-10-31T06:26:09;3.47;;;1.80;;
22388;SDS011;11362;48.102;11.620;2022-10-31T06:28:35;4.70;;;2.20;;
22388;SDS011;11362;48.102;11.620;2022-10-31T06:31:00;10.53;;;2.70;;
22388;SDS011;11362;48.102;11.620;2022-10-31T06:33:25;11.07;;;2.57;;
22388;SDS011;11362;48.102;11.620;2022-10-31T06:35:51;16.50;;;2.83;;
22388;SDS011;11362;48.102;11.620;2022-10-31T06:38:16;9.03;;;2.83;;
22388;SDS011;11362;48.102;11.620;2022-10-31T06:40:41;14.30;;;2.83;;
22388;SDS011;11362;48.102;11.620;2022-10-31T06:43:07;10.80;;;3.10;;
22388;SDS011;11362;48.102;11.620;2022-10-31T06:45:32;16.07;;;3.57;;
22388;SDS011;11362;48.102;11.620;2022-10-31T06:47:57;16.27;;;3.43;;
22388;SDS011;11362;48.102;11.620;2022-10-31T06:50:23;15.43;;;2.73;;
22388;SDS011;11362;48.102;11.620;2022-10-31T06:52:55;14.47;;;3.40;;
22388;SDS011;11362;48.102;11.620;2022-10-31T06:55:22;9.83;;;2.83;;
22388;SDS011;11362;48.102;11.620;2022-10-31T06:57:49;14.93;;;3.30;;
22388;SDS011;11362;48.102;11.620;2022-10-31T07:00:18;14.73;;;2.87;;
22388;SDS011;11362;48.102;11.620;2022-10-31T07:02:43;15.60;;;3.53;;
22388;SDS011;11362;48.102;11.620;2022-10-31T07:05:09;20.57;;;3.53;;
22388;SDS011;11362;48.102;11.620;2022-10-31T07:07:34;21.37;;;3.43;;
22388;SDS011;11362;48.102;11.620;2022-10-31T07:09:59;14.27;;;3.13;;
22388;SDS011;11362;48.102;11.620;2022-10-31T07:12:24;18.50;;;3.83;;
22388;SDS011;11362;48.102;11.620;2022-10-31T07:14:50;44.27;;;4.87;;
22388;SDS011;11362;48.102;11.620;2022-10-31T07:17:15;21.87;;;3.70;;
22388;SDS011;11362;48.102;11.620;2022-10-31T07:19:40;23.50;;;4.03;;
22388;SDS011;11362;48.102;11.620;2022-10-31T07:22:06;21.50;;;3.83;;
22388;SDS011;11362;48.102;11.620;2022-10-31T07:24:31;26.50;;;3.20;;
22388;SDS011;11362;48.102;11.620;2022-10-31T07:26:56;12.07;;;4.40;;
22388;SDS011;11362;48.102;11.620;2022-10-31T07:29:21;15.23;;;4.03;;
22388;SDS011;11362;48.102;11.620;2022-10-31T07:31:47;17.60;;;3.23;;
22388;SDS011;11362;48.102;11.620;2022-10-31T07:34:12;18.60;;;3.67;;
22388;SDS011;11362;48.102;11.620;2022-10-31T07:36:37;15.90;;;3.60;;
22388;SDS011;11362;48.102;11.620;2022-10-31T07:39:02;12.73;;;3.07;;
22388;SDS011;11362;48.102;11.620;2022-10-31T07:41:28;9.40;;;3.57;;
22388;SDS011;11362;48.102;11.620;2022-10-31T07:43:53;16.00;;;3.43;;
22388;SDS011;11362;48.102;11.620;2022-10-31T07:46:18;19.93;;;3.53;;
22388;SDS011;11362;48.102;11.620;2022-10-31T07:48:44;21.50;;;3.53;;
22388;SDS011;11362;48.102;11.620;2022-10-31T07:51:09;19.13;;;4.00;;
22388;SDS011;11362;48.102;11.620;2022-10-31T07:53:34;14.70;;;4.20;;
22388;SDS011;11362;48.102;11.620;2022-10-31T07:56:00;15.00;;;3.20;;
22388;SDS011;11362;48.102;11.620;2022-10-31T07:58:25;22.07;;;4.10;;
22388;SDS011;11362;48.102;11.620;2022-10-31T08:00:50;15.27;;;3.60;;
22388;SDS011;11362;48.102;11.620;2022-10-31T08:03:17;16.53;;;3.80;;
22388;SDS011;11362;48.102;11.620;2022-10-31T08:05:43;20.33;;;3.33;;
22388;SDS011;11362;48.102;11.620;2022-10-31T08:08:08;18.87;;;4.90;;
22388;SDS011;11362;48.102;11.620;2022-10-31T08:10:34;17.67;;;4.43;;
22388;SDS011;11362;48.102;11.620;2022-10-31T08:13:01;19.83;;;4.13;;
22388;SDS011;11362;48.102;11.620;2022-10-31T08:15:31;23.03;;;4.20;;
22388;SDS011;11362;48.102;11.620;2022-10-31T08:17:57;27.73;;;4.60;;
22388;SDS011;11362;48.102;11.620;2022-10-31T08:20:22;19.77;;;4.27;;
22388;SDS011;11362;48.102;11.620;2022-10-31T08:22:55;16.20;;;4.13;;
22388;SDS011;11362;48.102;11.620;2022-10-31T08:25:21;21.27;;;4.33;;
22388;SDS011;11362;48.102;11.620;2022-10-31T08:27:50;15.27;;;3.90;;
22388;SDS011;11362;48.102;11.620;2022-10-31T08:30:17;18.80;;;4.90;;
22388;SDS011;11362;48.102;11.620;2022-10-31T08:32:44;15.83;;;3.67;;
22388;SDS011;11362;48.102;11.620;2022-10-31T08:35:09;17.97;;;3.90;;
22388;SDS011;11362;48.102;11.620;2022-10-31T08:37:34;20.53;;;4.30;;
22388;SDS011;11362;48.102;11.620;2022-10-31T08:39:59;14.73;;;4.20;;
22388;SDS011;11362;48.102;11.620;2022-10-31T08:42:25;13.33;;;3.77;;
22388;SDS011;11362;48.102;11.620;2022-10-31T08:44:50;16.67;;;3.47;;
22388;SDS011;11362;48.102;11.620;2022-10-31T08:47:15;14.97;;;3.93;;
22388;SDS011;11362;48.102;11.620;2022-10-31T08:49:41;13.10;;;3.17;;
22388;SDS011;11362;48.102;11.620;2022-10-31T08:52:06;12.30;;;3.90;;
22388;SDS011;11362;48.102;11.620;2022-10-31T08:54:31;13.53;;;3.93;;
22388;SDS011;11362;48.102;11.620;2022-10-31T08:56:56;8.43;;;3.00;;
22388;SDS011;11362;48.102;11.620;2022-10-31T08:59:22;21.70;;;4.23;;
22388;SDS011;11362;48.102;11.620;2022-10-31T09:01:47;13.67;;;3.70;;
22388;SDS011;11362;48.102;11.620;2022-10-31T09:04:12;17.63;;;4.70;;
22388;SDS011;11362;48.102;11.620;2022-10-31T09:06:38;8.73;;;4.07;;
22388;SDS011;11362;48.102;11.620;2022-10-31T09:09:03;17.70;;;4.40;;
22388;SDS011;11362;48.102;11.620;2022-10-31T09:11:29;22.00;;;4.63;;
22388;SDS011;11362;48.102;11.620;2022-10-31T09:13:55;19.00;;;4.87;;
22388;SDS011;11362;48.102;11.620;2022-10-31T09:16:20;21.20;;;4.50;;
22388;SDS011;11362;48.102;11.620;2022-10-31T09:18:45;13.10;;;4.63;;
22388;SDS011;11362;48.102;11.620;2022-10-31T09:21:11;20.83;;;5.03;;
22388;SDS011;11362;48.102;11.620;2022-10-31T09:23:36;23.00;;;4.50;;
22388;SDS011;11362;48.102;11.620;2022-10-31T09:26:01;20.53;;;5.37;;
22388;SDS011;11362;48.102;11.620;2022-10-31T09:28:27;25.87;;;5.70;;
22388;SDS011;11362;48.102;11.620;2022-10-31T09:30:53;21.13;;;5.73;;
22388;SDS011;11362;48.102;11.620;2022-10-31T09:33:19;20.47;;;5.17;;
22388;SDS011;11362;48.102;11.620;2022-10-31T09:35:44;20.33;;;4.87;;
22388;SDS011;11362;48.102;11.620;2022-10-31T09:38:10;25.93;;;5.73;;
22388;SDS011;11362;48.102;11.620;2022-10-31T09:41:01;19.63;;;5.57;;
22388;SDS011;11362;48.102;11.620;2022-10-31T09:44:14;22.03;;;5.33;;
22388;SDS011;11362;48.102;11.620;2022-10-31T09:49:34;15.17;;;4.87;;
22388;SDS011;11362;48.102;11.620;2022-10-31T09:54:45;20.27;;;5.30;;
22388;SDS011;11362;48.102;11.620;2022-10-31T09:57:17;20.20;;;5.37;;
22388;SDS011;11362;48.102;11.620;2022-10-31T09:59:47;19.73;;;4.20;;
22388;SDS011;11362;48.102;11.620;2022-10-31T10:05:17;15.30;;;4.63;;
22388;SDS011;11362;48.102;11.620;2022-10-31T10:10:33;21.30;;;5.00;;
22388;SDS011;11362;48.102;11.620;2022-10-31T10:18:33;22.83;;;5.80;;
22388;SDS011;11362;48.102;11.620;2022-10-31T10:26:51;27.30;;;5.80;;
22388;SDS011;11362;48.102;11.620;2022-10-31T10:29:44;28.27;;;5.80;;
22388;SDS011;11362;48.102;11.620;2022-10-31T10:32:21;24.87;;;5.33;;
22388;SDS011;11362;48.102;11.620;2022-10-31T10:34:50;14.00;;;4.93;;
22388;SDS011;11362;48.102;11.620;2022-10-31T10:39:53;22.07;;;5.17;;
22388;SDS011;11362;48.102;11.620;2022-10-31T10:42:21;20.07;;;4.10;;
22388;SDS011;11362;48.102;11.620;2022-10-31T10:44:50;18.67;;;4.47;;
22388;SDS011;11362;48.102;11.620;2022-10-31T10:47:16;23.73;;;4.90;;
22388;SDS011;11362;48.102;11.620;2022-10-31T10:49:46;20.77;;;5.07;;
22388;SDS011;11362;48.102;11.620;2022-10-31T10:52:30;21.00;;;5.57;;
22388;SDS011;11362;48.102;11.620;2022-10-31T10:58:07;24.90;;;5.17;;
22388;SDS011;11362;48.102;11.620;2022-10-31T11:00:38;16.00;;;4.37;;
22388;SDS011;11362;48.102;11.620;2022-10-31T11:03:08;18.47;;;4.57;;
22388;SDS011;11362;48.102;11.620;2022-10-31T11:08:27;28.03;;;6.07;;
22388;SDS011;11362;48.102;11.620;2022-10-31T11:11:05;18.83;;;4.83;;
22388;SDS011;11362;48.102;11.620;2022-10-31T11:13:36;25.10;;;5.43;;
22388;SDS011;11362;48.102;11.620;2022-10-31T11:18:30;29.43;;;5.30;;
22388;SDS011;11362;48.102;11.620;2022-10-31T11:20:58;15.47;;;4.30;;
22388;SDS011;11362;48.102;11.620;2022-10-31T11:23:25;21.30;;;5.53;;
22388;SDS011;11362;48.102;11.620;2022-10-31T11:25:56;19.10;;;5.13;;
22388;SDS011;11362;48.102;11.620;2022-10-31T11:28:26;16.77;;;4.47;;
22388;SDS011;11362;48.102;11.620;2022-10-31T11:30:56;19.67;;;5.10;;
22388;SDS011;11362;48.102;11.620;2022-10-31T11:33:34;17.83;;;4.17;;
22388;SDS011;11362;48.102;11.620;2022-10-31T11:36:04;18.17;;;4.43;;
22388;SDS011;11362;48.102;11.620;2022-10-31T11:38:41;22.93;;;4.93;;
22388;SDS011;11362;48.102;11.620;2022-10-31T11:41:10;19.77;;;4.70;;
22388;SDS011;11362;48.102;11.620;2022-10-31T11:43:39;14.83;;;4.90;;
22388;SDS011;11362;48.102;11.620;2022-10-31T11:46:20;11.23;;;3.93;;
22388;SDS011;11362;48.102;11.620;2022-10-31T11:48:57;14.43;;;3.80;;
22388;SDS011;11362;48.102;11.620;2022-10-31T11:51:24;16.07;;;4.97;;
22388;SDS011;11362;48.102;11.620;2022-10-31T11:53:53;15.33;;;3.50;;
22388;SDS011;11362;48.102;11.620;2022-10-31T11:56:22;18.13;;;3.50;;
22388;SDS011;11362;48.102;11.620;2022-10-31T11:59:01;16.03;;;4.43;;
22388;SDS011;11362;48.102;11.620;2022-10-31T12:01:30;14.90;;;4.43;;
22388;SDS011;11362;48.102;11.620;2022-10-31T12:06:28;14.40;;;4.33;;
22388;SDS011;11362;48.102;11.620;2022-10-31T12:08:57;13.57;;;3.93;;
22388;SDS011;11362;48.102;11.620;2022-10-31T12:14:27;14.77;;;4.20;;
22388;SDS011;11362;48.102;11.620;2022-10-31T12:22:33;17.00;;;4.03;;
22388;SDS011;11362;48.102;11.620;2022-10-31T12:31:05;18.60;;;4.03;;
22388;SDS011;11362;48.102;11.620;2022-10-31T12:34:02;13.97;;;3.90;;
22388;SDS011;11362;48.102;11.620;2022-10-31T12:36:53;12.97;;;4.30;;
22388;SDS011;11362;48.102;11.620;2022-10-31T12:39:46;15.03;;;4.03;;
22388;SDS011;11362;48.102;11.620;2022-10-31T12:50:27;19.83;;;3.83;;
22388;SDS011;11362;48.102;11.620;2022-10-31T12:56:16;15.13;;;3.33;;
22388;SDS011;11362;48.102;11.620;2022-10-31T12:58:50;11.57;;;4.23;;
22388;SDS011;11362;48.102;11.620;2022-10-31T13:01:21;10.73;;;4.57;;
22388;SDS011;11362;48.102;11.620;2022-10-31T13:03:56;12.40;;;3.97;;
22388;SDS011;11362;48.102;11.620;2022-10-31T13:06:29;13.17;;;3.30;;
22388;SDS011;11362;48.102;11.620;2022-10-31T13:09:00;10.90;;;3.67;;
22388;SDS011;11362;48.102;11.620;2022-10-31T13:11:32;7.53;;;3.00;;
22388;SDS011;11362;48.102;11.620;2022-10-31T13:16:42;10.80;;;3.10;;
22388;SDS011;11362;48.102;11.620;2022-10-31T13:24:33;11.40;;;3.17;;
22388;SDS011;11362;48.102;11.620;2022-10-31T13:27:09;10.50;;;3.13;;
22388;SDS011;11362;48.102;11.620;2022-10-31T13:29:41;9.50;;;3.07;;
22388;SDS011;11362;48.102;11.620;2022-10-31T13:32:13;7.53;;;2.87;;
22388;SDS011;11362;48.102;11.620;2022-10-31T13:34:39;7.20;;;3.17;;
22388;SDS011;11362;48.102;11.620;2022-10-31T13:37:17;7.60;;;3.10;;
22388;SDS011;11362;48.102;11.620;2022-10-31T13:45:30;8.70;;;3.37;;
22388;SDS011;11362;48.102;11.620;2022-10-31T13:48:17;13.07;;;2.87;;
22388;SDS011;11362;48.102;11.620;2022-10-31T13:50:58;6.87;;;2.40;;
22388;SDS011;11362;48.102;11.620;2022-10-31T13:54:32;9.17;;;3.20;;
22388;SDS011;11362;48.102;11.620;2022-10-31T13:56:24;7.53;;;3.00;;
22388;SDS011;11362;48.102;11.620;2022-10-31T13:58:57;9.17;;;2.70;;
22388;SDS011;11362;48.102;11.620;2022-10-31T14:02:14;7.23;;;3.20;;
22388;SDS011;11362;48.102;11.620;2022-10-31T14:04:48;8.97;;;3.17;;
22388;SDS011;11362;48.102;11.620;2022-10-31T14:07:21;6.13;;;2.63;;
22388;SDS011;11362;48.102;11.620;2022-10-31T14:12:23;8.30;;;3.10;;
22388;SDS011;11362;48.102;11.620;2022-10-31T14:14:56;9.37;;;2.77;;
22388;SDS011;11362;48.102;11.620;2022-10-31T14:17:28;5.87;;;2.70;;
22388;SDS011;11362;48.102;11.620;2022-10-31T14:19:59;10.23;;;3.80;;
22388;SDS011;11362;48.102;11.620;2022-10-31T14:22:45;12.13;;;2.70;;
22388;SDS011;11362;48.102;11.620;2022-10-31T14:25:33;6.00;;;2.47;;
22388;SDS011;11362;48.102;11.620;2022-10-31T14:28:01;5.93;;;3.17;;
22388;SDS011;11362;48.102;11.620;2022-10-31T14:30:29;11.33;;;3.20;;
22388;SDS011;11362;48.102;11.620;2022-10-31T14:32:57;7.70;;;3.07;;
22388;SDS011;11362;48.102;11.620;2022-10-31T14:35:25;10.70;;;3.17;;
22388;SDS011;11362;48.102;11.620;2022-10-31T14:38:35;8.10;;;3.07;;
22388;SDS011;11362;48.102;11.620;2022-10-31T14:41:09;7.37;;;2.97;;
22388;SDS011;11362;48.102;11.620;2022-10-31T14:52:16;7.00;;;2.43;;
22388;SDS011;11362;48.102;11.620;2022-10-31T14:54:46;7.73;;;2.97;;
22388;SDS011;11362;48.102;11.620;2022-10-31T15:00:18;8.70;;;3.30;;
22388;SDS011;11362;48.102;11.620;2022-10-31T15:05:54;9.87;;;3.20;;
22388;SDS011;11362;48.102;11.620;2022-10-31T15:08:27;9.03;;;3.10;;
22388;SDS011;11362;48.102;11.620;2022-10-31T15:10:56;14.70;;;3.03;;
22388;SDS011;11362;48.102;11.620;2022-10-31T15:13:21;13.07;;;3.33;;
22388;SDS011;11362;48.102;11.620;2022-10-31T15:15:47;11.73;;;3.67;;
22388;SDS011;11362;48.102;11.620;2022-10-31T15:18:18;12.43;;;3.80;;
22388;SDS011;11362;48.102;11.620;2022-10-31T15:20:47;13.20;;;4.03;;
22388;SDS011;11362;48.102;11.620;2022-10-31T15:23:16;8.40;;;3.70;;
22388;SDS011;11362;48.102;11.620;2022-10-31T15:25:46;9.10;;;2.73;;
22388;SDS011;11362;48.102;11.620;2022-10-31T15:28:15;10.50;;;4.03;;
22388;SDS011;11362;48.102;11.620;2022-10-31T15:30:51;10.63;;;3.70;;
22388;SDS011;11362;48.102;11.620;2022-10-31T15:33:39;12.70;;;3.77;;
22388;SDS011;11362;48.102;11.620;2022-10-31T15:36:05;8.03;;;3.30;;
22388;SDS011;11362;48.102;11.620;2022-10-31T15:38:31;12.23;;;3.97;;
22388;SDS011;11362;48.102;11.620;2022-10-31T15:41:04;8.10;;;3.77;;
22388;SDS011;11362;48.102;11.620;2022-10-31T15:43:45;11.27;;;3.60;;
22388;SDS011;11362;48.102;11.620;2022-10-31T15:46:12;10.17;;;3.40;;
22388;SDS011;11362;48.102;11.620;2022-10-31T15:48:38;14.70;;;3.40;;
22388;SDS011;11362;48.102;11.620;2022-10-31T15:51:03;5.53;;;3.57;;
22388;SDS011;11362;48.102;11.620;2022-10-31T15:53:35;9.23;;;2.93;;
22388;SDS011;11362;48.102;11.620;2022-10-31T15:56:03;8.47;;;2.90;;
22388;SDS011;11362;48.102;11.620;2022-10-31T15:58:39;7.90;;;2.87;;
22388;SDS011;11362;48.102;11.620;2022-10-31T16:01:24;10.67;;;3.10;;
22388;SDS011;11362;48.102;11.620;2022-10-31T16:06:38;9.17;;;3.23;;
22388;SDS011;11362;48.102;11.620;2022-10-31T16:09:03;12.10;;;3.17;;
22388;SDS011;11362;48.102;11.620;2022-10-31T16:11:46;8.67;;;3.60;;
22388;SDS011;11362;48.102;11.620;2022-10-31T16:16:44;9.60;;;4.33;;
22388;SDS011;11362;48.102;11.620;2022-10-31T16:19:15;9.93;;;3.23;;
22388;SDS011;11362;48.102;11.620;2022-10-31T16:21:44;10.67;;;3.80;;
22388;SDS011;11362;48.102;11.620;2022-10-31T16:26:51;11.00;;;3.57;;
22388;SDS011;11362;48.102;11.620;2022-10-31T16:29:31;12.77;;;3.23;;
22388;SDS011;11362;48.102;11.620;2022-10-31T16:31:57;7.23;;;3.27;;
22388;SDS011;11362;48.102;11.620;2022-10-31T16:34:22;12.13;;;3.53;;
22388;SDS011;11362;48.102;11.620;2022-10-31T16:36:48;6.20;;;3.00;;
22388;SDS011;11362;48.102;11.620;2022-10-31T16:39:13;8.13;;;2.90;;
22388;SDS011;11362;48.102;11.620;2022-10-31T16:41:40;9.37;;;3.20;;
22388;SDS011;11362;48.102;11.620;2022-10-31T16:46:47;7.50;;;2.97;;